Time;durP1;ratioP1;P1;durP2;ratioP2;P2;SDS_P1;SDS_P2;PMS_P1;PMS_P2;Temp;Humidity;BMP_temperature;BMP_pressure;BME280_temperature;BME280_humidity;BME280_pressure;Samples;Min_cycle;Max_cycle;Signal;HPM_P1;HPM_P2
2023/01/10 00:00:57;;;;;;;;;2.00;2.00;;;;;8.46;64.58;101301.03;2100084;28;46725;-59
2023/01/10 00:01:57;;;;;;;;;3.33;2.00;;;;;8.45;64.60;101301.03;2103144;27;46612;-61
2023/01/10 00:02:58;;;;;;;;;4.00;4.00;;;;;8.46;64.72;101302.78;2102579;27;46439;-60
2023/01/10 00:03:58;;;;;;;;;4.33;3.00;;;;;8.44;64.75;101297.50;2105080;28;46424;-61
2023/01/10 00:04:58;;;;;;;;;1.00;1.00;;;;;8.43;64.71;101297.53;2108827;27;46595;-59
2023/01/10 00:05:59;;;;;;;;;1.33;1.33;;;;;8.43;64.48;101300.16;2111509;27;46589;-59
2023/01/10 00:06:59;;;;;;;;;3.00;3.00;;;;;8.42;64.83;101299.28;2106947;27;46822;-59
2023/01/10 00:08:03;;;;;;;;;1.50;1.50;;;;;8.42;64.78;101301.94;2104767;27;46687;-60
2023/01/10 00:09:04;;;;;;;;;1.25;1.25;;;;;8.43;64.88;101300.16;2103759;28;46789;-60
2023/01/10 00:10:04;;;;;;;;;4.00;1.75;;;;;8.42;64.51;101303.69;2099116;28;46508;-61
2023/01/10 00:13:22;;;;;;;;;3.50;2.50;;;;;8.41;64.71;101301.94;2104902;27;46837;-60
2023/01/10 00:13:44;;;;;;;;;3.00;3.00;;;;;8.41;64.73;101301.94;2103363;28;46430;-59
2023/01/10 00:14:44;;;;;;;;;7.00;6.00;;;;;8.41;64.84;101301.94;2104963;28;46471;-59
2023/01/10 00:15:45;;;;;;;;;3.67;3.67;;;;;8.41;64.91;101302.81;2096804;28;46203;-60
2023/01/10 00:16:45;;;;;;;;;3.00;3.00;;;;;8.42;64.89;101304.59;2098636;28;46687;-60
2023/01/10 00:17:46;;;;;;;;;2.67;2.67;;;;;8.42;64.80;101299.28;2103475;27;47251;-60
2023/01/10 00:18:46;;;;;;;;;4.00;4.00;;;;;8.44;64.89;101307.22;2113405;27;46728;-60
2023/01/10 00:19:46;;;;;;;;;1.33;1.33;;;;;8.43;64.62;101310.75;2107079;27;46673;-61
2023/01/10 00:20:50;;;;;;;;;4.67;3.67;;;;;8.45;64.65;101319.56;2104956;28;46625;-59
2023/01/10 00:21:50;;;;;;;;;3.25;2.75;;;;;8.44;64.59;101315.16;2111695;27;47057;-61
2023/01/10 00:22:51;;;;;;;;;3.00;3.00;;;;;8.42;64.53;101312.50;2109556;27;46250;-61
2023/01/10 00:23:51;;;;;;;;;3.67;3.67;;;;;8.42;64.65;101307.22;2103860;28;46179;-60
2023/01/10 00:24:51;;;;;;;;;2.00;2.00;;;;;8.41;64.61;101321.34;2104036;28;46660;-60
2023/01/10 00:25:52;;;;;;;;;3.00;3.00;;;;;8.41;64.63;101317.81;2109954;27;45648;-59
2023/01/10 00:26:53;;;;;;;;;2.67;2.67;;;;;8.41;64.56;101317.81;2111070;27;46552;-60
2023/01/10 00:28:00;;;;;;;;;3.50;2.50;;;;;8.42;64.71;101316.94;2108967;27;46678;-60
2023/01/10 00:29:00;;;;;;;;;3.25;1.75;;;;;8.44;64.84;101318.69;2108480;27;46732;-59
2023/01/10 00:30:12;;;;;;;;;3.33;2.33;;;;;8.46;64.67;101327.47;2108411;27;45586;-60
2023/01/10 00:31:15;;;;;;;;;5.75;3.00;;;;;8.49;64.67;101329.22;2096256;28;46540;-60
2023/01/10 00:32:15;;;;;;;;;5.75;3.50;;;;;8.51;64.81;101335.38;2091373;28;45891;-60
2023/01/10 00:33:19;;;;;;;;;3.00;3.00;;;;;8.51;64.54;101333.66;2104471;27;46288;-60
2023/01/10 00:34:20;;;;;;;;;5.75;2.75;;;;;8.52;64.45;101332.75;2085739;28;46603;-59
2023/01/10 00:35:20;;;;;;;;;3.33;2.33;;;;;8.54;64.49;101338.94;2085657;28;46383;-59
2023/01/10 00:36:20;;;;;;;;;3.00;2.00;;;;;8.54;64.45;101332.75;2097997;28;45495;-60
2023/01/10 00:37:20;;;;;;;;;5.00;3.00;;;;;8.55;64.42;101339.81;2104515;28;46729;-59
2023/01/10 00:38:21;;;;;;;;;3.00;1.67;;;;;8.53;64.54;101337.16;2099087;27;46896;-59
2023/01/10 00:39:25;;;;;;;;;4.00;3.00;;;;;8.53;64.30;101339.81;2099352;27;46439;-60
2023/01/10 00:40:26;;;;;;;;;3.25;3.00;;;;;8.51;64.23;101345.97;2104097;28;46320;-60
2023/01/10 00:44:05;;;;;;;;;3.50;2.50;;;;;8.46;64.28;101347.75;2104725;27;47037;-59
2023/01/10 00:45:06;;;;;;;;;3.75;2.25;;;;;8.44;64.37;101342.47;2104800;28;46850;-60
2023/01/10 00:46:07;;;;;;;;;3.33;2.33;;;;;8.45;64.41;101349.53;2103741;28;46590;-59
2023/01/10 00:47:07;;;;;;;;;3.50;3.50;;;;;8.45;64.56;101359.22;2097287;28;46880;-59
2023/01/10 00:48:08;;;;;;;;;5.33;2.67;;;;;8.42;64.45;101349.53;2109707;27;45840;-59
2023/01/10 00:49:10;;;;;;;;;2.67;2.67;;;;;8.40;64.43;101353.97;2104920;27;46762;-59
2023/01/10 00:50:10;;;;;;;;;2.75;2.75;;;;;8.39;64.52;101354.84;2104266;28;46198;-60
2023/01/10 00:51:11;;;;;;;;;4.00;4.00;;;;;8.39;64.46;101354.84;2105254;27;46609;-60
2023/01/10 00:52:12;;;;;;;;;5.00;1.00;;;;;8.38;64.71;101355.69;2105873;27;46491;-60
2023/01/10 00:53:12;;;;;;;;;2.67;2.67;;;;;8.39;64.64;101361.91;2104694;28;46314;-59
2023/01/10 00:54:13;;;;;;;;;6.67;4.00;;;;;8.38;64.57;101366.28;2102635;27;45519;-59
2023/01/10 00:55:14;;;;;;;;;1.00;1.00;;;;;8.37;64.65;101361.00;2113248;27;46417;-59
2023/01/10 00:56:15;;;;;;;;;4.00;3.00;;;;;8.36;64.79;101356.59;2108564;27;47011;-59
2023/01/10 00:57:15;;;;;;;;;3.00;1.75;;;;;8.36;64.59;101364.53;2113656;27;45672;-60
2023/01/10 00:58:16;;;;;;;;;4.00;3.00;;;;;8.37;64.61;101364.53;2104295;27;46693;-61
2023/01/10 00:59:17;;;;;;;;;2.00;2.00;;;;;8.38;64.66;101368.94;2108574;27;46777;-59
2023/01/10 01:00:17;;;;;;;;;2.67;1.00;;;;;8.39;64.72;101364.56;2111269;27;46677;-60
2023/01/10 01:01:17;;;;;;;;;2.33;1.33;;;;;8.38;64.66;101366.28;2096943;28;45612;-60
2023/01/10 01:02:18;;;;;;;;;4.00;4.00;;;;;8.38;64.79;101373.34;2098921;28;46093;-59
2023/01/10 01:03:20;;;;;;;;;3.33;3.00;;;;;8.36;64.76;101362.75;2103945;27;47009;-60
2023/01/10 01:04:21;;;;;;;;;5.00;3.75;;;;;8.37;64.80;101371.56;2110668;27;46793;-60
2023/01/10 01:05:22;;;;;;;;;3.50;2.25;;;;;8.37;64.71;101369.81;2108286;27;46148;-61
2023/01/10 01:06:22;;;;;;;;;3.00;2.00;;;;;8.37;64.62;101375.09;2112920;27;46710;-60
2023/01/10 01:07:22;;;;;;;;;3.00;3.00;;;;;8.35;64.71;101368.06;2102721;27;46091;-61
2023/01/10 01:08:23;;;;;;;;;1.33;1.00;;;;;8.36;64.89;101372.47;2097423;28;46415;-59
2023/01/10 01:09:23;;;;;;;;;2.67;2.00;;;;;8.36;64.81;101378.63;2112787;27;46406;-60
2023/01/10 01:10:26;;;;;;;;;2.00;2.00;;;;;8.36;65.04;101372.47;2110540;27;46507;-60
2023/01/10 01:11:26;;;;;;;;;1.75;1.75;;;;;8.37;64.70;101380.38;2105986;27;46214;-60
2023/01/10 01:12:27;;;;;;;;;3.67;2.00;;;;;8.38;64.85;101378.63;2110452;27;46257;-59
2023/01/10 01:13:27;;;;;;;;;3.00;3.00;;;;;8.39;64.81;101383.06;2108571;27;46752;-60
2023/01/10 01:14:27;;;;;;;;;11.00;3.00;;;;;8.39;65.08;101381.28;2106617;27;45923;-60
2023/01/10 01:15:28;;;;;;;;;3.67;2.00;;;;;8.40;64.76;101375.13;2108791;27;46847;-59
2023/01/10 01:16:28;;;;;;;;;5.67;3.00;;;;;8.41;64.82;101379.53;2104626;27;46838;-61
2023/01/10 01:17:29;;;;;;;;;3.67;3.00;;;;;8.42;64.70;101380.41;2112562;27;46337;-61
2023/01/10 01:18:29;;;;;;;;;4.00;2.67;;;;;8.41;64.82;101379.53;2110617;27;45811;-60
2023/01/10 01:19:29;;;;;;;;;2.33;1.00;;;;;8.42;64.77;101380.41;2113027;27;46975;-61
2023/01/10 01:20:30;;;;;;;;;4.00;3.00;;;;;8.42;64.81;101385.69;2105562;27;45498;-59
2023/01/10 01:21:31;;;;;;;;;6.75;3.00;;;;;8.44;64.69;101386.56;2104241;27;46402;-61
2023/01/10 01:22:31;;;;;;;;;2.67;2.67;;;;;8.45;65.00;101385.69;2105510;28;46582;-59
2023/01/10 01:23:33;;;;;;;;;3.00;2.33;;;;;8.45;64.88;101383.03;2112583;27;46594;-60
2023/01/10 01:24:34;;;;;;;;;2.75;2.00;;;;;8.46;64.88;101384.78;2114073;27;46958;-59
2023/01/10 01:25:34;;;;;;;;;2.00;2.00;;;;;8.47;64.75;101390.06;2108494;27;46511;-60
2023/01/10 01:26:35;;;;;;;;;6.33;4.33;;;;;8.48;64.80;101399.78;2107368;27;46245;-59
2023/01/10 01:27:37;;;;;;;;;2.00;2.00;;;;;8.47;64.86;101394.47;2106060;28;46786;-62
2023/01/10 01:28:37;;;;;;;;;2.00;2.00;;;;;8.49;64.74;101398.00;2109442;27;46445;-61
2023/01/10 01:29:37;;;;;;;;;2.00;2.00;;;;;8.50;64.92;101398.00;2110323;27;46872;-60
2023/01/10 01:30:38;;;;;;;;;4.00;3.00;;;;;8.50;64.98;101392.69;2107528;27;46247;-59
2023/01/10 01:31:38;;;;;;;;;3.00;1.67;;;;;8.50;64.72;101392.69;2104965;27;46342;-59
2023/01/10 01:32:39;;;;;;;;;3.33;2.00;;;;;8.49;64.71;101396.25;2100003;27;46234;-60
2023/01/10 01:33:39;;;;;;;;;3.00;3.00;;;;;8.48;64.84;101397.13;2110280;27;46203;-60
2023/01/10 01:34:40;;;;;;;;;4.00;2.33;;;;;8.50;64.72;101398.00;2105688;28;46869;-60
2023/01/10 01:35:42;;;;;;;;;4.00;1.00;;;;;8.51;65.03;101406.81;2098954;27;45560;-60
2023/01/10 01:36:42;;;;;;;;;3.75;1.75;;;;;8.52;64.77;101409.47;2108395;27;46501;-59
2023/01/10 01:37:43;;;;;;;;;2.67;2.67;;;;;8.52;65.08;101406.84;2106815;27;46274;-61
2023/01/10 01:38:43;;;;;;;;;3.75;2.75;;;;;8.52;64.88;101404.19;2096314;28;46872;-60
2023/01/10 01:39:45;;;;;;;;;3.00;1.67;;;;;8.53;64.87;101413.00;2089130;28;46596;-61
2023/01/10 01:40:46;;;;;;;;;2.25;2.00;;;;;8.53;64.79;101411.25;2091098;28;46871;-59
2023/01/10 01:41:59;;;;;;;;;3.33;3.00;;;;;8.55;64.89;101411.22;2107422;27;46617;-59
2023/01/10 01:42:59;;;;;;;;;2.00;1.00;;;;;8.57;64.77;101409.47;2105122;28;46504;-60
2023/01/10 01:44:33;;;;;;;;;3.00;1.00;;;;;8.58;64.73;101412.97;2100798;28;47330;-59
2023/01/10 01:45:37;;;;;;;;;2.75;1.00;;;;;8.58;64.61;101411.22;2102735;28;47121;-60
2023/01/10 01:46:39;;;;;;;;;2.75;2.00;;;;;8.60;64.83;101419.16;2108868;27;46315;-59
2023/01/10 01:48:04;;;;;;;;;2.50;2.00;;;;;8.57;64.53;101409.47;2107635;27;46639;-60
2023/01/10 01:49:12;;;;;;;;;1.50;1.50;;;;;8.57;64.67;101413.88;2102393;28;47589;-58
2023/01/10 01:50:18;;;;;;;;;3.50;2.00;;;;;8.56;64.81;101407.69;2109789;27;46980;-59
2023/01/10 01:51:25;;;;;;;;;3.25;3.25;;;;;8.55;64.74;101409.47;2105184;27;45951;-61
2023/01/10 01:52:33;;;;;;;;;2.50;1.00;;;;;8.56;64.82;101413.00;2108037;27;45908;-60
2023/01/10 01:53:38;;;;;;;;;2.00;2.00;;;;;8.54;64.65;101413.00;2103802;27;46392;-60
2023/01/10 01:54:38;;;;;;;;;1.75;1.25;;;;;8.55;64.68;101408.59;2108222;27;46313;-60
2023/01/10 01:55:42;;;;;;;;;1.33;1.33;;;;;8.57;64.53;101404.16;2108021;27;46152;-60
2023/01/10 01:56:53;;;;;;;;;4.00;3.00;;;;;8.58;64.64;101407.69;2104228;27;46710;-58
2023/01/10 01:57:57;;;;;;;;;4.00;4.00;;;;;8.59;64.66;101407.69;2102889;27;46542;-59
2023/01/10 01:59:04;;;;;;;;;2.50;2.25;;;;;8.62;64.94;101405.03;2107547;27;46297;-59
2023/01/10 02:00:05;;;;;;;;;3.75;2.00;;;;;8.63;64.79;101409.44;2110910;27;46444;-60
2023/01/10 02:01:06;;;;;;;;;3.25;2.75;;;;;8.66;64.68;101405.91;2102276;27;46403;-58
2023/01/10 02:02:13;;;;;;;;;2.50;2.50;;;;;8.66;64.80;101409.44;2107676;27;46918;-60
2023/01/10 02:03:15;;;;;;;;;4.75;3.00;;;;;8.67;64.86;101413.84;2102321;27;46494;-60
2023/01/10 02:04:18;;;;;;;;;1.25;1.25;;;;;8.69;64.68;101412.06;2105136;27;47537;-59
2023/01/10 02:05:21;;;;;;;;;4.25;3.00;;;;;8.70;64.81;101420.88;2101126;28;46568;-61
2023/01/10 02:06:24;;;;;;;;;6.75;3.25;;;;;8.71;64.63;101412.06;2108103;27;46696;-58
2023/01/10 02:07:30;;;;;;;;;4.00;2.25;;;;;8.73;64.58;101418.22;2104663;28;46876;-59
2023/01/10 02:08:30;;;;;;;;;2.00;1.00;;;;;8.73;64.59;101423.53;2104806;28;46453;-60
2023/01/10 02:09:45;;;;;;;;;2.67;2.00;;;;;8.72;64.62;101427.06;2108818;27;45720;-60
2023/01/10 02:11:01;;;;;;;;;4.75;2.75;;;;;8.74;64.78;101420.00;2106162;27;46750;-61
2023/01/10 02:12:02;;;;;;;;;2.00;2.00;;;;;8.75;64.58;101427.03;2104333;28;47075;-61
2023/01/10 02:13:04;;;;;;;;;4.00;3.00;;;;;8.76;64.56;101426.16;2108574;27;46422;-60
2023/01/10 02:14:07;;;;;;;;;2.25;2.25;;;;;8.75;64.45;101419.09;2100822;27;46416;-60
2023/01/10 02:15:09;;;;;;;;;3.75;3.75;;;;;8.76;64.53;101436.72;2102259;27;46195;-58
2023/01/10 02:16:10;;;;;;;;;4.75;1.50;;;;;8.74;64.62;101428.81;2104700;28;46739;-59
2023/01/10 02:17:11;;;;;;;;;3.67;3.00;;;;;8.73;64.45;101428.81;2102900;27;45625;-60
2023/01/10 02:18:12;;;;;;;;;2.00;2.00;;;;;8.72;64.47;101437.63;2104843;27;46459;-60
2023/01/10 02:19:35;;;;;;;;;4.50;3.75;;;;;8.71;64.50;101435.88;2102691;28;46271;-60
2023/01/10 02:21:02;;;;;;;;;2.50;2.50;;;;;8.72;64.64;101442.94;2112558;27;46498;-60
2023/01/10 02:22:24;;;;;;;;;4.00;2.00;;;;;8.71;64.54;101443.81;2084644;28;46899;-59
2023/01/10 02:23:50;;;;;;;;;1.25;1.00;;;;;8.72;64.72;101445.56;2091645;28;46322;-60
2023/01/10 02:25:22;;;;;;;;;2.00;1.00;;;;;8.70;64.73;101450.88;2089739;28;46229;-60
2023/01/10 02:26:49;;;;;;;;;3.50;2.50;;;;;8.69;64.66;101453.53;2089502;28;46401;-61
2023/01/10 02:28:10;;;;;;;;;3.50;2.00;;;;;8.68;64.74;101450.00;2088387;28;46511;-61
2023/01/10 02:29:42;;;;;;;;;2.00;2.00;;;;;8.69;64.74;101458.81;2085741;28;46833;-61
2023/01/10 02:31:04;;;;;;;;;2.00;2.00;;;;;8.68;64.83;101455.28;2096329;28;46898;-60
2023/01/10 02:32:17;;;;;;;;;7.50;2.50;;;;;8.66;64.80;101458.84;2088281;28;46500;-60
2023/01/10 02:33:33;;;;;;;;;3.25;2.25;;;;;8.63;64.79;101451.75;2089145;28;46152;-61
2023/01/10 02:35:00;;;;;;;;;5.75;2.75;;;;;8.63;64.84;101465.00;2085633;28;46726;-58
2023/01/10 02:36:28;;;;;;;;;4.50;2.00;;;;;8.63;64.69;101451.75;2048087;28;46927;-58
2023/01/10 02:37:56;;;;;;;;;3.75;2.50;;;;;8.62;64.77;101467.63;2051457;28;47021;-60
2023/01/10 02:39:06;;;;;;;;;2.00;2.00;;;;;8.59;64.72;101463.25;2047466;28;45928;-58
2023/01/10 02:40:26;;;;;;;;;4.00;1.50;;;;;8.58;64.76;101461.47;2046490;28;46681;-61
2023/01/10 02:41:34;;;;;;;;;5.00;2.00;;;;;8.58;65.09;101466.78;2053034;28;46579;-59
2023/01/10 02:43:11;;;;;;;;;5.00;3.75;;;;;8.57;64.79;101459.72;2047702;28;46905;-59
2023/01/10 02:44:25;;;;;;;;;3.00;3.00;;;;;8.55;64.89;101465.03;2046555;28;46293;-60
2023/01/10 02:45:49;;;;;;;;;3.25;1.75;;;;;8.54;65.19;101457.09;2045830;28;46687;-59
2023/01/10 02:46:50;;;;;;;;;2.00;2.00;;;;;8.53;65.01;101458.84;2038816;28;46843;-60
2023/01/10 02:47:50;;;;;;;;;4.50;3.75;;;;;8.54;65.01;101462.38;2048118;28;46780;-60
2023/01/10 02:48:53;;;;;;;;;3.00;2.67;;;;;8.53;64.90;101458.84;2048394;28;46340;-58
2023/01/10 02:49:53;;;;;;;;;1.50;1.50;;;;;8.54;65.01;101465.91;2049959;28;47344;-58
2023/01/10 02:50:57;;;;;;;;;2.67;2.33;;;;;8.55;65.03;101461.50;2046779;28;46828;-60
2023/01/10 02:51:57;;;;;;;;;2.75;1.00;;;;;8.57;64.96;101464.13;2038702;28;46488;-60
2023/01/10 02:53:03;;;;;;;;;3.00;2.67;;;;;8.57;64.98;101480.00;2038504;28;46173;-60
2023/01/10 02:54:18;;;;;;;;;4.75;3.50;;;;;8.54;64.96;101481.78;2049584;28;46493;-61
2023/01/10 02:55:25;;;;;;;;;3.25;2.75;;;;;8.53;64.92;101473.84;2047361;28;46560;-60
2023/01/10 02:56:45;;;;;;;;;4.00;1.50;;;;;8.51;65.14;101479.16;2047847;28;46735;-60
2023/01/10 02:57:55;;;;;;;;;2.75;2.00;;;;;8.53;65.07;101482.66;2048528;28;47103;-60
2023/01/10 02:59:38;;;;;;;;;3.50;3.25;;;;;8.53;65.16;101487.97;2048242;28;45613;-59
2023/01/10 03:00:52;;;;;;;;;1.50;1.50;;;;;8.53;65.06;101493.25;2068597;28;45728;-61
2023/01/10 03:02:20;;;;;;;;;2.75;2.00;;;;;8.53;65.39;101490.59;2068889;28;46617;-60
2023/01/10 03:03:36;;;;;;;;;2.25;2.00;;;;;8.54;65.17;101491.47;2055379;28;46509;-60
2023/01/10 03:04:36;;;;;;;;;1.25;1.00;;;;;8.53;65.16;101490.59;2066751;28;46473;-59
2023/01/10 03:05:59;;;;;;;;;2.00;2.00;;;;;8.52;65.16;101490.59;2066344;28;46840;-60
2023/01/10 03:07:17;;;;;;;;;2.00;1.75;;;;;8.52;65.11;101485.31;2064753;28;46335;-59
2023/01/10 03:08:17;;;;;;;;;4.25;2.00;;;;;8.52;65.29;101488.84;2062190;28;46615;-60
2023/01/10 03:09:33;;;;;;;;;4.33;3.00;;;;;8.52;65.37;101478.25;2069439;28;46826;-60
2023/01/10 03:10:44;;;;;;;;;2.00;2.00;;;;;8.54;65.42;101478.25;2066130;28;46817;-60
2023/01/10 03:11:46;;;;;;;;;3.00;2.00;;;;;8.54;65.38;101476.50;2065276;28;46336;-60
2023/01/10 03:13:09;;;;;;;;;2.50;1.00;;;;;8.53;65.12;101477.38;2060514;28;46389;-60
2023/01/10 03:14:16;;;;;;;;;1.00;1.00;;;;;8.52;65.28;101472.97;2084151;28;47208;-59
2023/01/10 03:15:18;;;;;;;;;3.00;2.00;;;;;8.52;65.42;101475.63;2090070;28;46662;-60
2023/01/10 03:16:26;;;;;;;;;3.00;3.00;;;;;8.52;65.41;101478.25;2086873;28;46527;-59
2023/01/10 03:17:29;;;;;;;;;3.00;1.75;;;;;8.53;65.39;101469.44;2092641;28;46571;-59
2023/01/10 03:18:35;;;;;;;;;2.00;2.00;;;;;8.54;65.43;101467.69;2083888;28;46934;-60
2023/01/10 03:19:42;;;;;;;;;4.00;2.00;;;;;8.55;65.52;101466.78;2086712;28;46932;-60
2023/01/10 03:20:46;;;;;;;;;4.50;3.00;;;;;8.56;65.49;101476.47;2087427;28;46773;-60
2023/01/10 03:21:51;;;;;;;;;4.25;2.25;;;;;8.58;65.77;101472.06;2088966;28;46170;-60
2023/01/10 03:22:54;;;;;;;;;2.00;2.00;;;;;8.60;65.67;101478.22;2087581;28;46541;-59
2023/01/10 03:23:59;;;;;;;;;2.75;2.25;;;;;8.60;65.42;101482.66;2089766;28;45915;-59
2023/01/10 03:25:05;;;;;;;;;2.00;2.00;;;;;8.61;65.55;101481.75;2092546;28;46785;-61
2023/01/10 03:26:08;;;;;;;;;2.25;1.25;;;;;8.63;65.45;101482.63;2086287;28;47022;-59
2023/01/10 03:27:23;;;;;;;;;3.25;3.25;;;;;8.64;65.63;101487.94;2079989;28;46953;-59
2023/01/10 03:28:30;;;;;;;;;3.50;2.75;;;;;8.65;65.51;101481.78;2085569;28;46801;-60
2023/01/10 03:29:38;;;;;;;;;4.00;3.75;;;;;8.66;65.57;101485.31;2084276;28;47002;-60
2023/01/10 03:30:50;;;;;;;;;2.00;2.00;;;;;8.67;65.60;101481.75;2088759;28;47070;-59
2023/01/10 03:31:56;;;;;;;;;2.50;2.00;;;;;8.68;65.38;101480.88;2082133;28;46704;-60
2023/01/10 03:32:58;;;;;;;;;2.75;1.75;;;;;8.67;65.59;101482.66;2087957;28;46484;-60
2023/01/10 03:33:59;;;;;;;;;2.00;2.00;;;;;8.68;65.62;101481.75;2094936;28;46129;-60
2023/01/10 03:35:01;;;;;;;;;3.00;1.67;;;;;8.70;65.47;101490.56;2093310;28;46664;-59
2023/01/10 03:36:04;;;;;;;;;2.00;2.00;;;;;8.70;65.46;101489.69;2091858;28;47304;-59
2023/01/10 03:37:10;;;;;;;;;2.00;1.25;;;;;8.69;65.47;101488.81;2083181;28;46592;-60
2023/01/10 03:38:22;;;;;;;;;2.00;1.00;;;;;8.70;65.48;101487.94;2096223;27;46474;-61
2023/01/10 03:39:43;;;;;;;;;2.00;2.00;;;;;8.72;65.51;101493.22;2101010;27;46252;-59
2023/01/10 03:40:55;;;;;;;;;3.75;2.00;;;;;8.72;65.46;101496.75;2108438;27;46786;-59
2023/01/10 03:42:24;;;;;;;;;2.60;2.60;;;;;8.74;65.50;101496.72;2104984;28;46742;-60
2023/01/10 03:45:12;;;;;;;;;3.00;3.00;;;;;8.77;65.31;101491.47;2096897;28;46030;-59
2023/01/10 03:46:24;;;;;;;;;2.50;1.25;;;;;8.79;65.46;101484.38;2103603;28;46597;-61
2023/01/10 03:47:37;;;;;;;;;5.00;2.75;;;;;8.81;65.41;101494.09;2105787;27;47008;-60
2023/01/10 03:48:43;;;;;;;;;1.75;1.75;;;;;8.82;65.32;101500.25;2103912;28;46492;-60
2023/01/10 03:49:53;;;;;;;;;1.00;1.00;;;;;8.82;65.16;101492.31;2108047;27;46799;-60
2023/01/10 03:50:57;;;;;;;;;2.75;2.50;;;;;8.84;65.13;101499.38;2106341;27;46466;-60
2023/01/10 03:52:00;;;;;;;;;4.50;2.25;;;;;8.83;65.10;101499.38;2105812;27;46353;-59
2023/01/10 03:53:00;;;;;;;;;4.25;1.75;;;;;8.83;65.32;101504.66;2112125;27;46413;-59
2023/01/10 03:54:01;;;;;;;;;1.00;1.00;;;;;8.83;65.25;101508.19;2108861;27;46878;-59
2023/01/10 03:55:04;;;;;;;;;2.67;2.67;;;;;8.83;65.43;101504.66;2104750;28;46589;-59
2023/01/10 03:56:05;;;;;;;;;2.25;2.25;;;;;8.84;65.43;101509.94;2103768;27;47129;-60
2023/01/10 03:57:06;;;;;;;;;2.50;2.00;;;;;8.84;65.37;101509.94;2107352;27;46401;-60
2023/01/10 03:58:07;;;;;;;;;1.00;0.50;;;;;8.86;65.20;101502.00;2104996;27;46950;-60
2023/01/10 03:59:07;;;;;;;;;2.33;2.00;;;;;8.86;65.27;101509.94;2109182;27;46614;-61
2023/01/10 04:00:09;;;;;;;;;1.67;1.00;;;;;8.86;65.07;101515.22;2107631;27;46339;-61
2023/01/10 04:01:09;;;;;;;;;1.75;1.25;;;;;8.86;65.10;101509.94;2099651;28;45975;-60
2023/01/10 04:02:10;;;;;;;;;4.67;2.00;;;;;8.87;65.18;101511.69;2107159;27;46225;-60
2023/01/10 04:03:10;;;;;;;;;5.00;4.00;;;;;8.88;65.08;101520.53;2109482;27;46413;-61
2023/01/10 04:04:10;;;;;;;;;1.00;1.00;;;;;8.89;65.37;101522.28;2104922;27;46170;-60
2023/01/10 04:05:11;;;;;;;;;2.00;2.00;;;;;8.90;65.33;101514.38;2103845;27;46332;-60
2023/01/10 04:06:11;;;;;;;;;1.00;1.00;;;;;8.91;65.32;101526.72;2101706;28;46653;-60
2023/01/10 04:07:12;;;;;;;;;4.33;3.00;;;;;8.91;65.15;101518.78;2104359;27;46446;-58
2023/01/10 04:08:12;;;;;;;;;3.00;3.00;;;;;8.92;65.05;101517.88;2103376;28;46452;-60
2023/01/10 04:09:13;;;;;;;;;1.33;1.33;;;;;8.93;65.39;101513.47;2104654;28;46223;-61
2023/01/10 04:10:13;;;;;;;;;3.33;3.00;;;;;8.93;65.32;101524.94;2100387;28;45798;-60
2023/01/10 04:11:13;;;;;;;;;2.67;1.67;;;;;8.96;65.17;101519.63;2096153;28;46894;-60
2023/01/10 04:12:14;;;;;;;;;4.67;3.00;;;;;8.97;65.20;101515.22;2102649;28;46326;-60
2023/01/10 04:13:15;;;;;;;;;3.00;3.00;;;;;8.96;65.07;101509.03;2103226;28;46489;-60
2023/01/10 04:14:15;;;;;;;;;1.67;1.67;;;;;8.98;64.92;101511.69;2103428;27;46281;-59
2023/01/10 04:15:15;;;;;;;;;2.00;2.00;;;;;8.98;65.23;101515.22;2096265;28;45500;-59
2023/01/10 04:16:16;;;;;;;;;3.00;2.00;;;;;8.98;65.18;101507.25;2096075;28;45945;-59
2023/01/10 04:17:17;;;;;;;;;3.00;3.00;;;;;8.98;65.26;101511.69;2096525;28;46542;-60
2023/01/10 04:18:18;;;;;;;;;3.67;2.67;;;;;8.96;65.18;101509.03;2098418;28;46376;-59
2023/01/10 04:19:18;;;;;;;;;4.00;3.00;;;;;8.96;64.95;101508.16;2095581;28;46255;-60
2023/01/10 04:20:18;;;;;;;;;2.33;2.00;;;;;8.95;65.13;101509.06;2095414;28;46450;-59
2023/01/10 04:21:19;;;;;;;;;4.00;4.00;;;;;8.95;64.85;101507.28;2104895;28;46142;-60
2023/01/10 04:22:19;;;;;;;;;2.00;2.00;;;;;8.96;64.96;101506.41;2096783;28;46671;-59
2023/01/10 04:23:19;;;;;;;;;5.33;4.00;;;;;8.96;65.00;101508.16;2095184;28;46397;-61
2023/01/10 04:24:20;;;;;;;;;3.00;3.00;;;;;8.95;65.06;101503.75;2095923;28;46140;-59
2023/01/10 04:25:21;;;;;;;;;3.00;3.00;;;;;8.93;65.08;101506.41;2102855;28;46552;-60
2023/01/10 04:26:21;;;;;;;;;3.25;3.00;;;;;8.92;65.27;101504.66;2103819;28;46616;-59
2023/01/10 04:27:23;;;;;;;;;3.00;3.00;;;;;8.92;65.22;101509.94;2104960;28;45671;-60
2023/01/10 04:28:23;;;;;;;;;2.25;2.25;;;;;8.93;65.14;101505.53;2107910;27;46299;-60
2023/01/10 04:29:23;;;;;;;;;4.67;4.00;;;;;8.91;64.98;101504.66;2106657;27;46606;-59
2023/01/10 04:30:24;;;;;;;;;4.67;2.00;;;;;8.92;65.13;101509.06;2113126;27;46610;-59
2023/01/10 04:31:25;;;;;;;;;0.00;0.00;;;;;8.90;65.22;101514.38;2104826;27;46752;-59
2023/01/10 04:32:26;;;;;;;;;1.75;1.75;;;;;8.92;65.14;101511.72;2113492;27;46439;-61
2023/01/10 04:33:27;;;;;;;;;3.00;1.67;;;;;8.90;65.08;101517.00;2107354;27;46884;-61
2023/01/10 04:34:27;;;;;;;;;3.75;3.75;;;;;8.92;65.19;101506.41;2099943;28;47028;-59
2023/01/10 04:35:28;;;;;;;;;3.67;3.00;;;;;8.93;65.20;101521.41;2103722;27;46233;-59
2023/01/10 04:36:28;;;;;;;;;2.00;2.00;;;;;8.93;65.14;101521.41;2104307;27;46742;-59
2023/01/10 04:37:29;;;;;;;;;2.00;2.00;;;;;8.90;65.01;101524.97;2105142;28;46383;-61
2023/01/10 04:38:29;;;;;;;;;5.00;2.00;;;;;8.88;65.02;101525.81;2110942;27;45747;-59
2023/01/10 04:39:29;;;;;;;;;2.67;2.67;;;;;8.87;65.08;101527.59;2110117;27;46805;-59
2023/01/10 04:40:29;;;;;;;;;5.00;3.00;;;;;8.87;65.13;101529.34;2104557;27;47500;-60
2023/01/10 04:41:30;;;;;;;;;3.00;1.33;;;;;8.87;65.30;101524.06;2107537;27;45914;-60
2023/01/10 04:42:30;;;;;;;;;3.00;3.00;;;;;8.86;65.28;101533.75;2105106;27;45498;-61
2023/01/10 04:43:31;;;;;;;;;7.00;3.00;;;;;8.84;65.10;101536.41;2113069;27;46494;-59
2023/01/10 04:44:31;;;;;;;;;1.00;1.00;;;;;8.84;65.23;101538.19;2092030;28;46460;-60
2023/01/10 04:45:32;;;;;;;;;1.67;1.67;;;;;8.82;65.21;101534.66;2093497;28;45910;-59
2023/01/10 04:46:32;;;;;;;;;5.33;4.00;;;;;8.83;65.37;101534.66;2102070;28;46463;-59
2023/01/10 04:47:32;;;;;;;;;1.67;1.67;;;;;8.84;65.26;101530.25;2099478;28;45982;-60
2023/01/10 04:48:33;;;;;;;;;4.67;4.00;;;;;8.84;65.17;101528.47;2096372;28;46224;-60
2023/01/10 04:49:33;;;;;;;;;3.00;2.00;;;;;8.82;65.36;101534.66;2102701;28;46976;-59
2023/01/10 04:50:34;;;;;;;;;2.33;2.33;;;;;8.80;65.29;101526.72;2101458;27;46373;-59
2023/01/10 04:51:34;;;;;;;;;5.33;3.00;;;;;8.78;65.45;101532.91;2109510;27;46384;-61
2023/01/10 04:52:34;;;;;;;;;3.00;2.00;;;;;8.76;65.30;101537.28;2097871;28;47784;-60
2023/01/10 04:53:35;;;;;;;;;10.00;4.00;;;;;8.74;65.47;101533.78;2091571;28;46290;-61
2023/01/10 04:54:35;;;;;;;;;3.67;2.00;;;;;8.73;65.48;101532.00;2102756;28;45193;-57
2023/01/10 04:55:36;;;;;;;;;3.33;3.33;;;;;8.72;65.24;101530.25;2112060;27;46751;-60
2023/01/10 04:56:36;;;;;;;;;3.33;2.33;;;;;8.69;65.37;101533.78;2109959;27;46533;-59
2023/01/10 04:57:36;;;;;;;;;5.67;3.00;;;;;8.70;65.69;101526.72;2108422;27;46451;-59
2023/01/10 04:58:37;;;;;;;;;7.00;4.33;;;;;8.68;65.39;101529.38;2103058;28;46099;-60
2023/01/10 04:59:37;;;;;;;;;5.33;5.33;;;;;8.68;65.49;101526.75;2088843;28;45515;-60
2023/01/10 05:00:38;;;;;;;;;6.00;5.00;;;;;8.67;65.63;101527.63;2097850;28;46475;-59
2023/01/10 05:01:39;;;;;;;;;3.00;3.00;;;;;8.67;65.81;101527.63;2102100;28;45555;-61
2023/01/10 05:02:42;;;;;;;;;2.00;2.00;;;;;8.68;65.74;101534.69;2105903;28;46015;-59
2023/01/10 05:03:43;;;;;;;;;2.75;2.25;;;;;8.67;65.82;101524.09;2103872;28;46759;-59
2023/01/10 05:04:43;;;;;;;;;3.00;2.00;;;;;8.66;65.79;101519.69;2105912;28;47082;-60
2023/01/10 05:05:44;;;;;;;;;3.00;3.00;;;;;8.65;65.72;101524.09;2105486;28;46631;-60
2023/01/10 05:06:44;;;;;;;;;4.00;4.00;;;;;8.65;65.84;101520.59;2106089;28;46854;-61
2023/01/10 05:07:46;;;;;;;;;4.33;4.33;;;;;8.66;65.78;101523.22;2102775;28;46503;-60
2023/01/10 05:08:46;;;;;;;;;2.00;2.00;;;;;8.64;65.71;101519.69;2106122;28;46799;-59
2023/01/10 05:09:47;;;;;;;;;4.33;4.33;;;;;8.64;65.81;101519.69;2104824;28;46252;-60
2023/01/10 05:10:47;;;;;;;;;3.67;2.33;;;;;8.65;65.65;101524.09;2106072;28;46561;-60